Time;durP1;ratioP1;P1;durP2;ratioP2;P2;SDS_P1;SDS_P2;PMS_P1;PMS_P2;Temp;Humidity;BMP_temperature;BMP_pressure;BME280_temperature;BME280_humidity;BME280_pressure;Samples;Min_cycle;Max_cycle;Signal;HPM_P1;HPM_P2
2023/05/23 00:00:57;;;;;;;86.13;51.60;;;16.50;1.00;;;;;;5024783;28;20053;-77
2023/05/23 00:03:24;;;;;;;91.00;53.25;;;16.40;1.00;;;;;;5011393;28;20026;-78
2023/05/23 00:05:51;;;;;;;89.00;53.40;;;16.40;1.00;;;;;;5011123;28;20021;-76
2023/05/23 00:08:17;;;;;;;81.28;48.60;;;16.40;1.00;;;;;;5009579;28;20034;-77
2023/05/23 00:10:44;;;;;;;78.93;49.97;;;16.40;1.00;;;;;;5009075;28;20052;-79
2023/05/23 00:13:13;;;;;;;83.68;51.95;;;16.50;1.00;;;;;;5010508;28;20029;-77
2023/05/23 00:15:41;;;;;;;79.22;48.45;;;16.50;1.00;;;;;;5010736;28;20030;-77
2023/05/23 00:18:07;;;;;;;84.60;48.42;;;16.50;1.00;;;;;;5009069;28;20029;-78
2023/05/23 00:20:41;;;;;;;80.28;48.08;;;16.40;1.00;;;;;;5011182;28;20030;-77
2023/05/23 00:23:17;;;;;;;85.43;49.13;;;16.40;1.00;;;;;;5010595;28;20038;-78
2023/05/23 00:25:51;;;;;;;85.55;51.28;;;16.40;1.00;;;;;;5008246;28;20025;-77
2023/05/23 00:28:17;;;;;;;78.53;49.22;;;16.40;1.00;;;;;;5009060;28;20033;-77
2023/05/23 00:30:44;;;;;;;85.45;50.22;;;16.30;1.00;;;;;;5011070;28;20032;-78
2023/05/23 00:33:13;;;;;;;81.13;49.35;;;16.30;1.00;;;;;;5024258;28;20038;-78
2023/05/23 00:35:40;;;;;;;85.28;50.30;;;16.20;1.00;;;;;;5013677;28;20048;-79
2023/05/23 00:38:06;;;;;;;79.90;50.08;;;16.20;1.00;;;;;;5005262;28;20026;-79
2023/05/23 00:40:34;;;;;;;79.03;49.88;;;16.20;1.00;;;;;;5010595;28;20041;-78
2023/05/23 00:43:00;;;;;;;85.10;50.33;;;16.20;1.00;;;;;;5012707;28;20022;-82
2023/05/23 00:45:26;;;;;;;78.28;50.60;;;16.20;1.00;;;;;;5014148;28;20374;-78
2023/05/23 00:47:53;;;;;;;78.35;47.92;;;16.10;1.00;;;;;;5013503;28;20340;-78
2023/05/23 00:50:20;;;;;;;90.75;50.67;;;16.10;1.00;;;;;;5010998;28;20129;-78
2023/05/23 00:52:48;;;;;;;77.45;47.95;;;16.00;1.00;;;;;;5014438;28;20030;-78
2023/05/23 00:55:14;;;;;;;76.93;48.03;;;16.00;1.00;;;;;;5009501;28;20032;-78
2023/05/23 00:57:43;;;;;;;75.72;50.22;;;16.00;1.00;;;;;;5013149;28;20161;-78
2023/05/23 01:00:11;;;;;;;75.55;48.03;;;16.00;1.00;;;;;;5015781;28;20467;-78
2023/05/23 01:02:43;;;;;;;74.28;50.22;;;15.90;1.00;;;;;;5013988;28;20382;-78
2023/05/23 01:05:13;;;;;;;81.53;46.88;;;15.90;1.00;;;;;;5011834;28;20030;-78
2023/05/23 01:07:40;;;;;;;77.75;48.13;;;15.80;1.00;;;;;;5012749;28;20451;-78
2023/05/23 01:10:08;;;;;;;76.97;46.28;;;15.70;1.00;;;;;;5006843;28;20399;-78
2023/05/23 01:13:12;;;;;;;77.25;48.38;;;15.60;1.00;;;;;;5014147;28;20026;-78
2023/05/23 01:15:47;;;;;;;84.68;50.17;;;15.50;1.00;;;;;;4997547;28;20052;-78
2023/05/23 01:18:32;;;;;;;80.38;49.72;;;15.40;8.80;;;;;;5012488;28;20037;-78
2023/05/23 01:21:19;;;;;;;80.85;49.33;;;15.40;21.10;;;;;;5013426;28;20041;-79
2023/05/23 01:24:27;;;;;;;80.13;48.40;;;15.30;30.70;;;;;;5013954;28;20052;-77
2023/05/23 01:27:29;;;;;;;80.20;49.63;;;15.30;37.00;;;;;;5018399;28;20038;-80
2023/05/23 01:29:59;;;;;;;75.47;49.38;;;15.30;51.50;;;;;;4999457;28;20057;-78
2023/05/23 01:32:27;;;;;;;79.65;48.50;;;15.30;75.80;;;;;;5009332;28;20096;-78
2023/05/23 01:34:54;;;;;;;83.43;49.75;;;15.20;77.90;;;;;;5012486;28;20046;-78
2023/05/23 01:37:20;;;;;;;74.53;47.47;;;15.30;76.30;;;;;;5007238;28;20049;-78
2023/05/23 01:39:46;;;;;;;79.85;48.15;;;15.30;64.10;;;;;;5011064;28;20034;-77
2023/05/23 01:42:14;;;;;;;74.47;47.80;;;15.20;54.20;;;;;;4995383;28;20029;-78
2023/05/23 01:44:41;;;;;;;74.20;46.83;;;15.20;39.30;;;;;;5014272;28;20369;-77
2023/05/23 01:47:09;;;;;;;75.72;48.03;;;15.20;32.00;;;;;;5010440;28;20549;-77
2023/05/23 01:49:37;;;;;;;74.07;45.55;;;15.10;29.20;;;;;;5008993;28;20130;-77
2023/05/23 01:52:04;;;;;;;67.38;44.55;;;15.10;37.70;;;;;;5012739;28;20030;-82
2023/05/23 01:54:34;;;;;;;62.95;43.58;;;15.00;19.70;;;;;;5013991;28;20026;-77
2023/05/23 01:57:00;;;;;;;72.10;43.30;;;14.90;23.20;;;;;;5009712;28;20034;-77
2023/05/23 01:59:27;;;;;;;70.85;44.22;;;14.80;35.70;;;;;;4994760;28;20057;-78
2023/05/23 02:01:55;;;;;;;70.55;45.28;;;14.70;48.20;;;;;;5011922;28;20046;-77
2023/05/23 02:04:21;;;;;;;73.05;44.53;;;14.60;56.40;;;;;;5013064;28;20022;-77
2023/05/23 02:06:47;;;;;;;73.03;44.58;;;14.50;77.60;;;;;;5028183;28;20486;-79
2023/05/23 02:09:13;;;;;;;67.50;43.08;;;14.50;92.90;;;;;;5011370;28;20026;-77
2023/05/23 02:11:40;;;;;;;74.75;45.25;;;14.40;99.60;;;;;;5027805;28;20093;-77
2023/05/23 02:14:06;;;;;;;78.82;47.45;;;14.40;99.90;;;;;;5026843;28;20252;-81
2023/05/23 02:16:35;;;;;;;77.57;45.47;;;14.40;99.90;;;;;;5012999;28;20034;-77
2023/05/23 02:19:02;;;;;;;80.93;49.90;;;14.40;99.90;;;;;;5005023;28;20041;-76
2023/05/23 02:21:28;;;;;;;77.13;48.67;;;14.40;99.90;;;;;;5011906;28;20034;-78
2023/05/23 02:23:56;;;;;;;85.53;50.80;;;14.30;99.90;;;;;;5011134;28;20050;-77
2023/05/23 02:26:22;;;;;;;76.53;48.10;;;14.30;99.90;;;;;;5012084;28;20025;-76
2023/05/23 02:28:48;;;;;;;72.60;44.58;;;14.20;99.90;;;;;;5010247;28;20025;-77
2023/05/23 02:31:16;;;;;;;83.32;50.35;;;14.30;99.90;;;;;;5009339;28;20470;-78
2023/05/23 02:33:42;;;;;;;85.25;50.67;;;14.30;99.90;;;;;;5012259;28;20386;-77
2023/05/23 02:36:08;;;;;;;82.15;50.35;;;14.30;99.90;;;;;;5010002;28;20076;-82
2023/05/23 02:38:34;;;;;;;80.00;48.83;;;14.30;99.90;;;;;;5009490;28;20090;-77
2023/05/23 02:41:00;;;;;;;80.60;47.65;;;14.30;99.90;;;;;;5008556;28;20045;-78
2023/05/23 02:43:27;;;;;;;73.00;46.90;;;14.30;99.90;;;;;;5007132;28;20042;-77
2023/05/23 02:45:53;;;;;;;71.65;44.88;;;14.30;99.90;;;;;;4994301;28;20046;-77
2023/05/23 02:48:19;;;;;;;69.00;43.90;;;14.20;99.90;;;;;;5010215;28;20336;-77
2023/05/23 02:50:45;;;;;;;74.28;46.03;;;14.20;99.90;;;;;;5009090;28;20407;-77
2023/05/23 02:53:11;;;;;;;67.72;42.88;;;14.20;99.90;;;;;;5008311;28;20045;-76
2023/05/23 02:55:38;;;;;;;74.68;44.72;;;14.20;99.90;;;;;;5011689;28;20033;-78
2023/05/23 02:58:04;;;;;;;68.25;44.55;;;14.20;99.90;;;;;;5010694;28;20032;-79
2023/05/23 03:00:31;;;;;;;72.15;44.72;;;14.20;99.90;;;;;;5010056;28;20053;-77
2023/05/23 03:02:58;;;;;;;66.93;41.58;;;14.20;99.90;;;;;;5010517;28;20046;-77
2023/05/23 03:05:24;;;;;;;68.50;44.75;;;14.20;99.90;;;;;;5024390;28;20038;-77
2023/05/23 03:07:53;;;;;;;64.82;44.92;;;14.20;99.90;;;;;;5008877;28;20029;-77
2023/05/23 03:10:19;;;;;;;64.82;41.45;;;14.20;99.90;;;;;;5004390;28;20046;-77
2023/05/23 03:12:46;;;;;;;58.85;39.90;;;14.30;99.90;;;;;;5011953;28;20044;-77
2023/05/23 03:15:17;;;;;;;63.10;42.60;;;14.30;99.90;;;;;;5009900;28;20042;-77
2023/05/23 03:17:44;;;;;;;60.60;39.10;;;14.20;99.90;;;;;;5008988;28;20038;-77
2023/05/23 03:20:10;;;;;;;66.03;41.97;;;14.30;99.90;;;;;;5011193;28;20281;-77
2023/05/23 03:22:38;;;;;;;64.00;40.95;;;14.30;99.90;;;;;;5010230;28;20033;-77
2023/05/23 03:25:04;;;;;;;60.75;41.35;;;14.30;99.90;;;;;;4994146;28;20044;-77
2023/05/23 03:27:32;;;;;;;65.65;43.03;;;14.30;99.90;;;;;;5009776;28;20034;-77
2023/05/23 03:29:58;;;;;;;74.63;47.35;;;14.30;99.90;;;;;;5010535;28;20036;-76
2023/05/23 03:32:25;;;;;;;73.55;47.85;;;14.40;99.90;;;;;;5007105;28;20037;-77
2023/05/23 03:34:51;;;;;;;63.45;44.83;;;14.60;99.90;;;;;;5009795;28;20418;-77
2023/05/23 03:37:17;;;;;;;58.75;40.92;;;14.80;96.70;;;;;;5007753;28;20045;-78
2023/05/23 03:39:43;;;;;;;62.20;41.88;;;14.90;28.60;;;;;;5011278;28;20467;-77
2023/05/23 03:42:09;;;;;;;52.67;37.00;;;15.10;1.00;;;;;;5007482;28;20052;-80
2023/05/23 03:44:36;;;;;;;53.50;37.30;;;15.10;1.00;;;;;;5006077;28;20042;-74
2023/05/23 03:47:05;;;;;;;58.03;38.30;;;15.10;1.00;;;;;;4992630;28;20071;-77
2023/05/23 03:49:31;;;;;;;50.17;34.72;;;15.10;1.00;;;;;;5005708;28;20037;-76
2023/05/23 03:51:57;;;;;;;50.63;35.85;;;15.20;1.00;;;;;;5010005;28;20317;-76
2023/05/23 03:54:23;;;;;;;51.80;36.17;;;15.20;1.00;;;;;;5005985;28;20041;-74
2023/05/23 03:56:51;;;;;;;49.60;35.88;;;15.20;1.00;;;;;;5025653;28;20041;-75
2023/05/23 03:59:17;;;;;;;49.92;35.65;;;15.20;1.00;;;;;;5020730;28;20042;-75
2023/05/23 04:01:45;;;;;;;49.53;36.67;;;15.20;1.00;;;;;;5026022;28;20054;-75
2023/05/23 04:04:12;;;;;;;44.80;34.03;;;15.20;1.00;;;;;;5025330;28;20467;-76
2023/05/23 04:06:38;;;;;;;50.63;35.35;;;15.20;1.00;;;;;;5024610;28;20368;-77
2023/05/23 04:09:05;;;;;;;46.38;34.45;;;15.20;1.00;;;;;;5010282;28;20094;-76
2023/05/23 04:11:34;;;;;;;49.73;35.03;;;15.20;1.00;;;;;;5009178;28;20057;-77
2023/05/23 04:14:01;;;;;;;45.28;35.20;;;15.20;1.00;;;;;;4993303;28;20034;-76
2023/05/23 04:16:31;;;;;;;45.47;32.70;;;15.20;1.00;;;;;;5009439;28;20046;-75
2023/05/23 04:18:58;;;;;;;47.47;33.38;;;15.30;1.00;;;;;;5006064;28;20042;-77
2023/05/23 04:21:25;;;;;;;42.83;32.20;;;15.30;99.90;;;;;;5013043;28;20038;-77
2023/05/23 04:24:03;;;;;;;41.65;30.58;;;15.40;99.90;;;;;;5013849;28;20038;-77
2023/05/23 04:26:29;;;;;;;38.53;29.30;;;15.40;99.90;;;;;;5014199;28;20025;-77
2023/05/23 04:28:56;;;;;;;35.45;28.52;;;15.60;99.90;;;;;;5009383;28;20038;-78
2023/05/23 04:31:22;;;;;;;33.85;26.17;;;15.70;99.90;;;;;;5010029;28;20054;-76
2023/05/23 04:33:48;;;;;;;36.65;27.20;;;15.80;99.90;;;;;;5013024;28;20034;-77
2023/05/23 04:36:17;;;;;;;34.22;25.90;;;15.80;99.90;;;;;;5014411;28;20034;-78
2023/05/23 04:38:49;;;;;;;35.85;24.98;;;15.90;99.90;;;;;;5007472;28;20046;-76
2023/05/23 04:41:15;;;;;;;35.35;25.15;;;16.10;99.90;;;;;;5012663;28;20045;-79
2023/05/23 04:43:53;;;;;;;33.90;24.60;;;16.00;99.90;;;;;;5013090;28;20033;-78
2023/05/23 04:46:25;;;;;;;32.20;25.23;;;15.90;99.90;;;;;;5029239;28;20045;-77
2023/05/23 04:49:04;;;;;;;33.72;25.30;;;15.70;99.90;;;;;;5028828;28;20033;-77
2023/05/23 04:51:32;;;;;;;29.58;23.38;;;15.70;99.90;;;;;;5013880;28;20049;-77
2023/05/23 04:54:08;;;;;;;30.55;24.55;;;15.70;99.90;;;;;;5013366;28;20045;-76
2023/05/23 04:56:34;;;;;;;34.58;23.88;;;15.80;99.90;;;;;;5023869;28;20045;-78
2023/05/23 04:59:01;;;;;;;27.20;20.90;;;16.00;99.90;;;;;;5013704;28;20030;-77
2023/05/23 05:01:28;;;;;;;28.08;20.77;;;16.30;99.90;;;;;;5012769;28;20042;-76
2023/05/23 05:03:54;;;;;;;22.63;18.10;;;16.50;99.90;;;;;;5029633;28;20379;-78
2023/05/23 05:06:22;;;;;;;24.98;20.00;;;16.50;99.90;;;;;;5012904;28;20375;-77
2023/05/23 05:08:48;;;;;;;20.52;17.65;;;16.70;99.90;;;;;;5028159;28;20044;-78
2023/05/23 05:11:15;;;;;;;22.20;17.45;;;17.10;99.90;;;;;;5010043;28;20456;-80
2023/05/23 05:13:41;;;;;;;19.30;16.88;;;17.00;99.90;;;;;;5028779;28;20459;-78
2023/05/23 05:16:07;;;;;;;21.08;16.80;;;16.90;99.90;;;;;;5012740;28;20379;-78
2023/05/23 05:18:35;;;;;;;21.63;15.63;;;17.00;99.90;;;;;;5007876;28;20041;-78
2023/05/23 05:21:02;;;;;;;19.88;14.65;;;17.00;99.90;;;;;;5013878;28;20045;-75
2023/05/23 05:23:30;;;;;;;17.67;14.65;;;17.10;99.90;;;;;;5011591;28;20459;-77
2023/05/23 05:25:59;;;;;;;19.87;15.37;;;17.40;99.90;;;;;;5011751;28;20478;-76
2023/05/23 05:28:25;;;;;;;18.35;16.10;;;17.10;99.90;;;;;;5006399;28;20078;-78
2023/05/23 05:30:56;;;;;;;20.70;15.35;;;16.70;99.90;;;;;;5024888;28;20475;-77
2023/05/23 05:33:23;;;;;;;20.98;15.63;;;17.00;99.90;;;;;;5000058;28;20597;-77
2023/05/23 05:35:55;;;;;;;20.63;14.98;;;17.00;99.90;;;;;;5012361;28;20471;-77
2023/05/23 05:38:21;;;;;;;17.73;15.07;;;16.90;99.90;;;;;;5010500;28;20033;-79
2023/05/23 05:40:48;;;;;;;17.33;15.48;;;16.70;99.90;;;;;;5007989;28;20034;-77
2023/05/23 05:43:15;;;;;;;18.65;15.63;;;16.50;99.90;;;;;;5011645;28;20049;-83
2023/05/23 05:45:41;;;;;;;17.92;15.32;;;16.50;99.90;;;;;;5029258;28;20030;-76
2023/05/23 05:48:08;;;;;;;19.63;16.25;;;16.40;99.90;;;;;;5011669;28;20038;-76
2023/05/23 05:50:35;;;;;;;21.45;16.23;;;16.30;99.90;;;;;;5009122;28;20038;-76
2023/05/23 05:53:02;;;;;;;18.33;14.85;;;16.30;99.90;;;;;;5011499;28;20046;-77
2023/05/23 05:55:29;;;;;;;20.45;16.17;;;16.30;99.90;;;;;;5027354;28;20041;-78
2023/05/23 05:57:55;;;;;;;18.83;15.70;;;16.10;99.90;;;;;;5012341;28;20452;-76
2023/05/23 06:00:24;;;;;;;18.77;14.63;;;16.10;99.90;;;;;;5015112;28;20040;-78
2023/05/23 06:02:56;;;;;;;18.43;15.03;;;16.10;99.90;;;;;;5013566;28;20069;-78
2023/05/23 06:05:41;;;;;;;19.45;15.13;;;16.10;99.90;;;;;;5010060;28;20261;-76
2023/05/23 06:08:07;;;;;;;19.90;15.30;;;16.00;99.90;;;;;;5007790;28;20026;-78
2023/05/23 06:10:33;;;;;;;16.52;14.45;;;16.10;99.90;;;;;;5012812;28;20026;-78
2023/05/23 06:12:59;;;;;;;15.27;13.65;;;16.10;99.90;;;;;;5012124;28;20042;-77
2023/05/23 06:15:26;;;;;;;18.42;14.85;;;16.20;99.90;;;;;;5010728;28;20049;-77
2023/05/23 06:17:52;;;;;;;17.75;13.23;;;16.40;99.90;;;;;;5010444;28;20056;-77
2023/05/23 06:20:18;;;;;;;15.20;12.40;;;16.50;99.90;;;;;;5011937;28;20036;-81
2023/05/23 06:22:46;;;;;;;13.52;11.98;;;16.50;99.90;;;;;;5012302;28;20045;-80
2023/05/23 06:25:12;;;;;;;15.93;12.75;;;16.50;99.90;;;;;;5012579;28;20149;-79
2023/05/23 06:27:39;;;;;;;13.77;11.27;;;16.60;99.90;;;;;;5012204;28;20029;-79
2023/05/23 06:30:06;;;;;;;13.75;10.48;;;16.50;99.90;;;;;;5013761;28;20478;-78
2023/05/23 06:32:32;;;;;;;11.60;9.20;;;16.60;99.90;;;;;;5013110;28;20046;-79
2023/05/23 06:34:58;;;;;;;10.57;8.57;;;16.90;99.90;;;;;;5010455;28;20364;-79
2023/05/23 06:37:24;;;;;;;10.65;8.48;;;17.10;99.90;;;;;;5011596;28;20030;-80
2023/05/23 06:39:50;;;;;;;10.55;7.28;;;17.30;77.10;;;;;;5013005;28;20355;-79
2023/05/23 06:42:17;;;;;;;10.20;8.50;;;17.20;72.30;;;;;;5012144;28;20048;-80
2023/05/23 06:44:56;;;;;;;10.40;7.63;;;17.10;86.00;;;;;;5025711;28;20053;-80
2023/05/23 06:47:23;;;;;;;7.65;6.05;;;16.90;90.20;;;;;;5008938;28;20042;-78
2023/05/23 06:49:49;;;;;;;9.70;7.20;;;16.90;89.60;;;;;;5010369;28;20490;-79
2023/05/23 06:52:16;;;;;;;12.85;6.88;;;17.00;73.40;;;;;;5010994;28;20045;-89
2023/05/23 06:54:42;;;;;;;11.55;7.85;;;16.90;93.10;;;;;;5008079;28;20038;-78
2023/05/23 06:57:09;;;;;;;6.93;5.68;;;16.90;85.80;;;;;;5024635;28;20499;-78
2023/05/23 06:59:36;;;;;;;7.95;6.15;;;16.90;94.70;;;;;;5003634;28;20249;-77
2023/05/23 07:02:03;;;;;;;8.15;6.00;;;16.80;95.80;;;;;;5007274;28;20053;-80
2023/05/23 07:04:30;;;;;;;9.32;6.55;;;16.90;96.70;;;;;;5026068;28;20038;-78
2023/05/23 07:07:01;;;;;;;8.25;5.15;;;17.00;90.90;;;;;;5009390;28;20037;-76
2023/05/23 07:09:27;;;;;;;8.65;5.50;;;16.90;77.70;;;;;;5022315;28;20049;-76
2023/05/23 07:12:04;;;;;;;8.95;7.15;;;16.70;94.60;;;;;;5027150;28;20042;-81
2023/05/23 07:14:31;;;;;;;11.18;9.30;;;16.70;99.90;;;;;;5012063;28;20026;-78
2023/05/23 07:16:57;;;;;;;10.80;8.63;;;16.60;99.90;;;;;;5025125;28;20057;-78
2023/05/23 07:19:23;;;;;;;10.75;8.77;;;16.60;99.90;;;;;;5011937;28;20109;-79
2023/05/23 07:21:52;;;;;;;11.93;9.00;;;16.70;99.90;;;;;;5005955;28;20037;-78
2023/05/23 07:24:18;;;;;;;10.15;6.57;;;16.70;99.80;;;;;;5011817;28;20026;-79
2023/05/23 07:26:45;;;;;;;8.27;6.72;;;16.80;89.50;;;;;;5011064;28;20467;-79
2023/05/23 07:29:11;;;;;;;8.90;7.13;;;16.90;83.60;;;;;;5008189;28;20463;-80
2023/05/23 07:31:37;;;;;;;8.50;6.68;;;17.20;74.50;;;;;;5009948;28;20064;-80
2023/05/23 07:34:04;;;;;;;9.40;7.20;;;17.40;62.30;;;;;;5008156;28;20045;-75
2023/05/23 07:36:39;;;;;;;8.50;6.88;;;17.40;45.90;;;;;;5006792;28;20045;-82
2023/05/23 07:39:08;;;;;;;7.32;5.88;;;17.50;33.20;;;;;;5010671;28;20038;-80
2023/05/23 07:41:34;;;;;;;6.65;5.95;;;17.50;38.80;;;;;;5011271;28;20061;-78
2023/05/23 07:44:00;;;;;;;8.65;6.85;;;17.30;16.00;;;;;;5011939;28;20443;-77
2023/05/23 07:46:27;;;;;;;10.90;6.70;;;17.20;22.30;;;;;;5002773;28;20053;-79
2023/05/23 07:48:53;;;;;;;6.82;5.95;;;17.20;13.00;;;;;;5010966;28;20026;-79
2023/05/23 07:51:20;;;;;;;7.22;6.05;;;17.30;11.00;;;;;;5012666;28;20038;-80
2023/05/23 07:53:48;;;;;;;8.52;6.97;;;17.30;1.00;;;;;;5012800;28;20046;-79
2023/05/23 07:56:14;;;;;;;8.15;6.20;;;17.30;7.60;;;;;;5012301;28;20040;-83
2023/05/23 07:58:42;;;;;;;7.15;6.40;;;17.50;9.90;;;;;;5008322;28;20042;-79
2023/05/23 08:01:08;;;;;;;8.25;6.20;;;17.40;2.80;;;;;;5011682;28;20053;-76
2023/05/23 08:04:03;;;;;;;9.23;5.78;;;17.30;8.70;;;;;;5008981;28;20052;-84
2023/05/23 08:06:39;;;;;;;6.90;5.32;;;17.20;16.90;;;;;;5011997;28;20041;-82
2023/05/23 08:09:08;;;;;;;6.82;5.20;;;17.10;16.90;;;;;;5030817;28;20053;-80
2023/05/23 08:11:40;;;;;;;9.18;5.43;;;17.20;17.20;;;;;;5028817;28;20042;-80
2023/05/23 08:14:07;;;;;;;7.43;6.05;;;17.20;14.50;;;;;;5012716;28;20042;-77
2023/05/23 08:16:36;;;;;;;7.05;5.65;;;17.10;6.40;;;;;;5014019;28;20050;-80
2023/05/23 08:19:03;;;;;;;6.88;5.47;;;17.20;16.10;;;;;;5010701;28;20042;-80
2023/05/23 08:21:29;;;;;;;8.73;6.32;;;17.20;14.70;;;;;;5008212;28;20038;-78
2023/05/23 08:23:55;;;;;;;7.43;5.50;;;17.20;18.10;;;;;;5010983;28;20351;-77
2023/05/23 08:26:22;;;;;;;6.60;4.88;;;17.30;10.00;;;;;;5010197;28;20089;-83
2023/05/23 08:28:48;;;;;;;5.85;5.25;;;17.30;18.10;;;;;;5008012;28;20041;-79
2023/05/23 08:31:14;;;;;;;6.32;4.68;;;17.30;6.90;;;;;;5010525;28;20058;-78
2023/05/23 08:33:42;;;;;;;5.40;4.90;;;17.30;14.30;;;;;;5010007;28;20051;-78
2023/05/23 08:36:08;;;;;;;5.95;4.78;;;17.20;11.10;;;;;;5015189;28;20037;-81
2023/05/23 08:38:34;;;;;;;7.85;4.38;;;17.30;17.60;;;;;;4993385;28;20038;-78
2023/05/23 08:41:18;;;;;;;4.88;4.20;;;17.60;14.10;;;;;;5010572;28;20383;-78
2023/05/23 08:43:46;;;;;;;4.82;3.47;;;17.70;5.20;;;;;;4992531;28;20038;-79
2023/05/23 08:46:17;;;;;;;3.58;3.28;;;18.00;8.90;;;;;;5005293;28;20049;-79
2023/05/23 08:48:50;;;;;;;5.22;3.55;;;18.40;1.00;;;;;;5028803;28;20042;-80
2023/05/23 08:51:17;;;;;;;6.82;3.45;;;18.80;1.00;;;;;;5008051;28;20045;-80
2023/05/23 08:53:47;;;;;;;4.83;3.40;;;19.10;1.00;;;;;;5009398;28;20463;-79
2023/05/23 08:56:15;;;;;;;4.07;3.67;;;19.00;1.00;;;;;;5008591;28;20269;-80
2023/05/23 08:58:46;;;;;;;6.13;3.65;;;19.20;1.00;;;;;;5026020;28;20049;-79
2023/05/23 09:01:17;;;;;;;4.75;3.65;;;19.40;1.00;;;;;;5027608;28;20030;-80
2023/05/23 09:03:43;;;;;;;3.70;3.13;;;19.80;1.00;;;;;;5028959;28;20041;-79
2023/05/23 09:06:24;;;;;;;;;;;20.00;1.00;;;;;;5009223;28;20072;-82
2023/05/23 09:08:50;;;;;;;5.45;3.80;;;19.40;1.00;;;;;;5014198;28;19928;-80
2023/05/23 09:11:20;;;;;;;4.72;3.15;;;19.50;1.00;;;;;;4994703;28;20038;-82
2023/05/23 09:13:48;;;;;;;4.47;3.45;;;19.30;1.00;;;;;;5009777;28;20038;-81
2023/05/23 09:16:16;;;;;;;4.22;3.42;;;18.80;1.00;;;;;;5010854;28;20030;-79
2023/05/23 09:18:47;;;;;;;5.53;3.42;;;18.40;1.00;;;;;;5012338;28;20046;-79
2023/05/23 09:21:16;;;;;;;4.70;3.28;;;18.50;1.00;;;;;;5010361;28;20375;-82
2023/05/23 09:23:58;;;;;;;6.28;3.25;;;18.50;1.00;;;;;;4998556;28;20045;-77
2023/05/23 09:26:26;;;;;;;5.25;3.40;;;18.50;1.00;;;;;;5011101;28;20042;-80
2023/05/23 09:28:58;;;;;;;5.07;3.42;;;18.50;1.00;;;;;;5013743;28;20030;-77
2023/05/23 09:31:30;;;;;;;4.63;2.88;;;18.60;1.00;;;;;;5009156;28;20050;-82
2023/05/23 09:33:57;;;;;;;6.20;3.28;;;18.90;1.00;;;;;;5010597;28;20053;-80
2023/05/23 09:36:28;;;;;;;3.65;2.80;;;19.70;1.00;;;;;;5012211;28;20045;-77
2023/05/23 09:38:54;;;;;;;4.22;2.88;;;20.00;1.00;;;;;;5010901;28;20071;-76
2023/05/23 09:41:21;;;;;;;4.28;2.88;;;19.60;1.00;;;;;;5013336;28;20383;-77
2023/05/23 09:43:54;;;;;;;4.05;3.60;;;19.10;1.00;;;;;;5013841;28;20105;-75
2023/05/23 09:46:21;;;;;;;4.32;3.20;;;19.30;1.00;;;;;;4995070;28;20037;-82
2023/05/23 09:48:50;;;;;;;3.70;2.85;;;19.70;1.00;;;;;;5011883;28;20038;-80
2023/05/23 09:51:21;;;;;;;4.32;2.70;;;20.20;1.00;;;;;;5012064;28;20044;-78
2023/05/23 09:53:48;;;;;;;4.07;2.58;;;20.10;1.00;;;;;;5013621;28;20034;-77
2023/05/23 09:56:18;;;;;;;3.88;2.67;;;20.50;1.00;;;;;;5012892;28;20033;-77
2023/05/23 09:58:49;;;;;;;3.78;3.17;;;19.90;1.00;;;;;;5014531;28;20030;-77
2023/05/23 10:01:16;;;;;;;4.00;2.97;;;19.50;1.00;;;;;;5013617;28;20026;-77
2023/05/23 10:03:50;;;;;;;4.20;3.38;;;19.10;1.00;;;;;;5013104;28;20041;-78
2023/05/23 10:06:23;;;;;;;4.00;3.35;;;18.90;1.00;;;;;;5012457;28;20050;-77
2023/05/23 10:09:03;;;;;;;4.68;3.08;;;18.80;1.00;;;;;;5013058;28;20105;-75
2023/05/23 10:11:35;;;;;;;3.38;2.83;;;18.60;1.00;;;;;;5008982;28;20033;-77
2023/05/23 10:14:05;;;;;;;4.15;2.72;;;18.70;1.00;;;;;;5009198;28;20041;-77
2023/05/23 10:16:37;;;;;;;4.25;3.00;;;18.50;1.00;;;;;;5008007;28;20034;-79
2023/05/23 10:19:16;;;;;;;9.68;3.42;;;18.30;1.00;;;;;;5012067;28;20026;-78
2023/05/23 10:21:48;;;;;;;5.03;3.83;;;18.50;1.00;;;;;;5012659;28;20096;-78
2023/05/23 10:24:15;;;;;;;7.32;4.38;;;18.40;1.00;;;;;;5012899;28;20045;-77
2023/05/23 10:26:43;;;;;;;5.32;3.60;;;18.50;1.00;;;;;;5012003;28;20017;-79
2023/05/23 10:29:10;;;;;;;5.88;3.90;;;18.50;1.00;;;;;;5023056;28;20032;-78
2023/05/23 10:31:37;;;;;;;6.50;4.15;;;18.70;1.00;;;;;;5024580;28;20045;-79
2023/05/23 10:34:33;;;;;;;4.40;3.90;;;18.90;1.00;;;;;;5020280;28;20049;-79
2023/05/23 10:37:04;;;;;;;3.90;3.50;;;19.40;1.00;;;;;;5012569;28;20022;-78
2023/05/23 10:39:45;;;;;;;6.95;3.60;;;19.40;1.00;;;;;;5013195;28;20026;-78
2023/05/23 10:42:45;;;;;;;5.63;4.20;;;19.40;1.00;;;;;;5012461;28;20382;-80
2023/05/23 10:45:22;;;;;;;5.72;3.63;;;20.00;1.00;;;;;;5013164;28;20030;-80
2023/05/23 10:47:52;;;;;;;3.53;2.72;;;19.60;1.00;;;;;;5011302;28;20041;-80
2023/05/23 10:50:33;;;;;;;4.78;2.83;;;19.30;1.00;;;;;;5012986;28;20037;-80
2023/05/23 10:53:04;;;;;;;3.63;2.53;;;19.10;1.00;;;;;;5008896;28;20033;-77
2023/05/23 10:55:33;;;;;;;3.72;2.72;;;18.90;1.00;;;;;;5009755;28;20042;-78
2023/05/23 10:58:10;;;;;;;4.00;2.38;;;18.70;1.00;;;;;;5011721;28;20034;-81
2023/05/23 11:00:37;;;;;;;5.78;2.85;;;18.60;1.00;;;;;;5012395;28;20044;-78
2023/05/23 11:03:07;;;;;;;3.65;2.53;;;18.50;1.00;;;;;;5013270;28;20030;-78
2023/05/23 11:05:37;;;;;;;3.67;2.80;;;18.70;1.00;;;;;;5012342;28;20466;-78
2023/05/23 11:08:12;;;;;;;6.33;3.50;;;18.90;1.00;;;;;;5011490;28;20053;-78
2023/05/23 11:11:11;;;;;;;4.03;3.13;;;18.90;1.00;;;;;;5012250;28;20025;-79
2023/05/23 11:13:56;;;;;;;4.22;3.03;;;18.70;1.00;;;;;;4984945;28;20061;-76
2023/05/23 11:16:27;;;;;;;6.03;3.35;;;18.60;1.00;;;;;;5009139;28;20379;-77
2023/05/23 11:19:27;;;;;;;4.93;3.35;;;18.70;1.00;;;;;;5012985;28;20093;-81
2023/05/23 11:22:01;;;;;;;6.77;3.60;;;18.80;1.00;;;;;;4980181;28;20053;-78
2023/05/23 11:24:53;;;;;;;5.57;3.30;;;19.10;1.00;;;;;;5010441;28;20292;-78
2023/05/23 11:27:33;;;;;;;5.35;3.45;;;19.10;1.00;;;;;;5010447;28;20026;-79
2023/05/23 11:30:16;;;;;;;5.43;3.78;;;19.40;1.00;;;;;;5011969;28;20030;-80
2023/05/23 11:32:50;;;;;;;4.63;3.38;;;19.40;1.00;;;;;;5007860;28;20497;-79
2023/05/23 11:35:17;;;;;;;4.78;4.05;;;19.60;1.00;;;;;;5010890;28;20046;-81
2023/05/23 11:37:43;;;;;;;5.15;3.58;;;20.00;1.00;;;;;;5010674;28;20042;-79
2023/05/23 11:40:26;;;;;;;5.25;4.00;;;20.00;1.00;;;;;;5012362;28;20033;-81
2023/05/23 11:42:56;;;;;;;4.82;4.10;;;19.50;1.00;;;;;;5009844;28;20037;-80
2023/05/23 11:45:22;;;;;;;5.40;4.85;;;19.30;1.00;;;;;;5011845;28;20034;-79
2023/05/23 11:47:49;;;;;;;10.20;5.53;;;19.10;1.00;;;;;;5010158;28;20045;-78
2023/05/23 11:50:15;;;;;;;8.48;6.30;;;18.90;1.00;;;;;;5011754;28;20030;-79
2023/05/23 11:52:42;;;;;;;7.40;5.43;;;18.90;1.00;;;;;;5004424;28;20050;-77
2023/05/23 11:55:08;;;;;;;6.15;5.53;;;18.90;1.00;;;;;;5009252;28;20048;-78
2023/05/23 11:57:38;;;;;;;11.05;6.00;;;19.20;1.00;;;;;;5010236;28;20033;-79
2023/05/23 12:00:08;;;;;;;10.90;6.57;;;19.40;1.00;;;;;;5011566;28;20379;-78
2023/05/23 12:02:42;;;;;;;8.13;6.80;;;19.50;1.00;;;;;;5008241;28;20277;-79
2023/05/23 12:05:10;;;;;;;7.88;5.90;;;19.50;1.00;;;;;;5011670;28;20343;-81
2023/05/23 12:07:45;;;;;;;13.40;7.13;;;19.70;1.00;;;;;;5012240;28;20029;-79
2023/05/23 12:10:15;;;;;;;10.00;6.50;;;19.70;1.00;;;;;;5022727;28;20030;-77
2023/05/23 12:12:42;;;;;;;6.95;5.45;;;19.70;1.00;;;;;;5011065;28;20034;-79
2023/05/23 12:15:10;;;;;;;8.65;6.55;;;20.00;1.00;;;;;;5009890;28;20046;-79
2023/05/23 12:17:44;;;;;;;7.65;5.63;;;20.10;1.00;;;;;;5009690;28;20037;-80
2023/05/23 12:20:11;;;;;;;7.65;6.20;;;20.60;1.00;;;;;;5011316;28;20030;-79
2023/05/23 12:22:37;;;;;;;8.00;5.25;;;20.30;1.00;;;;;;5010737;28;20030;-83
2023/05/23 12:25:08;;;;;;;8.55;5.70;;;20.60;1.00;;;;;;5011375;28;20026;-83
2023/05/23 12:27:36;;;;;;;8.27;5.55;;;20.10;1.00;;;;;;5009333;28;20046;-80
2023/05/23 12:30:16;;;;;;;8.68;5.82;;;20.50;1.00;;;;;;5011489;28;20030;-79
2023/05/23 12:32:44;;;;;;;8.00;6.50;;;20.50;1.00;;;;;;5009984;28;20042;-79
2023/05/23 12:35:12;;;;;;;8.90;5.78;;;21.00;1.00;;;;;;5012086;28;20038;-84
2023/05/23 12:37:42;;;;;;;9.57;5.38;;;20.90;1.00;;;;;;5011206;28;20026;-81
2023/05/23 12:40:13;;;;;;;6.53;5.78;;;20.40;1.00;;;;;;5012935;28;20034;-82
2023/05/23 12:42:51;;;;;;;6.47;5.82;;;20.70;1.00;;;;;;5014804;28;20034;-81
2023/05/23 12:45:18;;;;;;;9.80;6.72;;;20.50;1.00;;;;;;5013692;28;20045;-79
2023/05/23 12:47:44;;;;;;;9.20;7.13;;;20.20;1.00;;;;;;5013121;28;20041;-79
2023/05/23 12:50:11;;;;;;;11.95;7.03;;;20.30;1.00;;;;;;5015339;28;20026;-79
2023/05/23 12:52:37;;;;;;;12.75;7.93;;;19.70;1.00;;;;;;5012950;28;20052;-79